Time;durP1;ratioP1;P1;durP2;ratioP2;P2;SDS_P1;SDS_P2;PMS_P1;PMS_P2;Temp;Humidity;BMP_temperature;BMP_pressure;BME280_temperature;BME280_humidity;BME280_pressure;Samples;Min_cycle;Max_cycle;Signal;HPM_P1;HPM_P2
2022/05/24 00:00:40;;;;;;;0.60;0.50;;;;;;;15.34;100.00;94833.44;5011150;28;24528;-74
2022/05/24 00:03:06;;;;;;;0.55;0.38;;;;;;;15.33;100.00;94831.81;5011017;28;24530;-74
2022/05/24 00:05:36;;;;;;;1.50;0.40;;;;;;;15.24;100.00;94837.94;5010708;28;24439;-74
2022/05/24 00:08:04;;;;;;;2.13;0.40;;;;;;;15.27;100.00;94834.19;5010374;28;24464;-74
2022/05/24 00:10:33;;;;;;;0.82;0.30;;;;;;;15.18;100.00;94833.28;5011180;28;24531;-74
2022/05/24 00:13:00;;;;;;;0.50;0.20;;;;;;;14.95;100.00;94838.91;5010785;28;24514;-74
2022/05/24 00:15:30;;;;;;;0.80;0.30;;;;;;;14.83;100.00;94839.25;5010586;28;24842;-74
2022/05/24 00:17:59;;;;;;;0.40;0.25;;;;;;;14.69;100.00;94838.78;5010611;28;24436;-74
2022/05/24 00:20:28;;;;;;;0.22;0.17;;;;;;;14.58;100.00;94836.34;5010588;28;24478;-74
2022/05/24 00:22:56;;;;;;;0.10;0.10;;;;;;;14.66;100.00;94839.06;5010458;28;25027;-74
2022/05/24 00:25:23;;;;;;;0.77;0.30;;;;;;;14.67;100.00;94853.72;5010367;28;24448;-74
2022/05/24 00:27:49;;;;;;;1.00;0.40;;;;;;;14.66;100.00;94848.66;5010527;28;24806;-74
2022/05/24 00:30:17;;;;;;;0.50;0.30;;;;;;;14.80;100.00;94840.38;5010474;28;24491;-74
2022/05/24 00:32:44;;;;;;;0.40;0.20;;;;;;;14.84;100.00;94843.53;5010415;28;24441;-74
2022/05/24 00:35:11;;;;;;;0.60;0.30;;;;;;;14.76;100.00;94845.06;5010195;28;24538;-74
2022/05/24 00:37:40;;;;;;;0.55;0.30;;;;;;;14.79;100.00;94836.09;5010393;28;24977;-74
2022/05/24 00:40:10;;;;;;;0.77;0.40;;;;;;;14.56;100.00;94824.44;4994992;28;24424;-74
2022/05/24 00:42:39;;;;;;;0.87;0.37;;;;;;;14.51;100.00;94817.06;5010297;28;25000;-74
2022/05/24 00:45:11;;;;;;;1.38;0.40;;;;;;;14.49;100.00;94831.97;5010302;28;24436;-74
2022/05/24 00:47:42;;;;;;;1.50;0.40;;;;;;;14.45;100.00;94831.41;5010204;28;24452;-74
2022/05/24 00:50:13;;;;;;;0.40;0.30;;;;;;;14.61;100.00;94830.88;4994579;28;24443;-74
2022/05/24 00:52:46;;;;;;;0.73;0.40;;;;;;;14.69;100.00;94817.94;5010586;28;24436;-74
2022/05/24 00:55:21;;;;;;;0.77;0.30;;;;;;;14.79;100.00;94828.28;5010173;28;25012;-74
2022/05/24 00:57:55;;;;;;;1.75;0.38;;;;;;;14.86;100.00;94824.13;5013243;28;24440;-74
2022/05/24 01:00:23;;;;;;;0.70;0.40;;;;;;;14.93;100.00;94817.38;4999471;28;24849;-74
2022/05/24 01:02:50;;;;;;;0.50;0.38;;;;;;;14.95;100.00;94812.03;5014364;28;24428;-74
2022/05/24 01:05:19;;;;;;;0.50;0.40;;;;;;;15.00;100.00;94825.44;5014201;28;24437;-74
2022/05/24 01:07:46;;;;;;;1.05;0.45;;;;;;;14.93;100.00;94822.59;5013837;28;24451;-74
2022/05/24 01:10:18;;;;;;;0.57;0.38;;;;;;;14.93;100.00;94806.13;5014296;28;24463;-74
2022/05/24 01:12:50;;;;;;;1.27;0.37;;;;;;;14.98;100.00;94820.38;5013981;28;24447;-74
2022/05/24 01:15:18;;;;;;;0.50;0.30;;;;;;;14.93;100.00;94824.38;5014053;28;24440;-73
2022/05/24 01:17:45;;;;;;;0.47;0.38;;;;;;;14.96;100.00;94816.28;5014096;28;24487;-73
2022/05/24 01:20:13;;;;;;;0.30;0.30;;;;;;;14.95;100.00;94818.06;5014277;28;24433;-74
2022/05/24 01:23:04;;;;;;;2.10;0.40;;;;;;;14.94;100.00;94823.41;5014051;28;25024;-74
2022/05/24 01:25:38;;;;;;;1.90;0.50;;;;;;;14.93;100.00;94808.75;5013771;28;24443;-74
2022/05/24 01:28:14;;;;;;;0.70;0.40;;;;;;;14.94;100.00;94810.38;5013887;28;24456;-74
2022/05/24 01:30:41;;;;;;;0.45;0.30;;;;;;;14.91;100.00;94811.50;5013907;28;24841;-74
2022/05/24 01:38:35;;;;;;;0.75;0.50;;;;;;;14.83;100.00;94797.53;5013976;28;24517;-74
2022/05/24 01:41:02;;;;;;;0.40;0.40;;;;;;;14.83;100.00;94787.97;5013556;28;25420;-74
2022/05/24 01:43:30;;;;;;;1.07;0.50;;;;;;;14.70;100.00;94785.69;5013065;28;24468;-74
2022/05/24 01:46:01;;;;;;;0.93;0.50;;;;;;;14.48;100.00;94783.44;5013289;28;24433;-74
2022/05/24 01:48:31;;;;;;;0.70;0.60;;;;;;;14.46;100.00;94780.97;5013522;28;24452;-74
2022/05/24 01:51:01;;;;;;;0.70;0.40;;;;;;;14.21;100.00;94785.03;5013585;28;24447;-74
2022/05/24 01:53:31;;;;;;;0.57;0.40;;;;;;;13.97;100.00;94788.13;5013264;28;24499;-74
2022/05/24 01:56:01;;;;;;;3.47;0.50;;;;;;;13.84;100.00;94789.41;5012810;28;24483;-74
2022/05/24 01:58:32;;;;;;;0.85;0.40;;;;;;;14.02;100.00;94803.34;5013166;28;25004;-74
2022/05/24 02:01:03;;;;;;;0.80;0.50;;;;;;;14.06;100.00;94812.50;5013283;28;24494;-74
2022/05/24 02:03:29;;;;;;;0.40;0.40;;;;;;;14.17;100.00;94812.34;5013144;28;24440;-74
2022/05/24 02:05:56;;;;;;;0.73;0.52;;;;;;;14.22;100.00;94804.91;5012812;28;24445;-74
2022/05/24 02:08:22;;;;;;;1.30;0.80;;;;;;;14.28;100.00;94791.34;5012690;28;24448;-74
2022/05/24 02:10:54;;;;;;;0.60;0.60;;;;;;;14.30;100.00;94791.19;5012841;28;24437;-74
2022/05/24 02:13:25;;;;;;;2.60;0.60;;;;;;;14.35;100.00;94790.75;5013073;28;24470;-74
2022/05/24 02:15:58;;;;;;;0.90;0.70;;;;;;;14.35;100.00;94795.94;5013018;28;24822;-74
2022/05/24 02:18:26;;;;;;;0.85;0.70;;;;;;;14.35;100.00;94798.56;5013182;28;24841;-74
2022/05/24 02:20:52;;;;;;;0.50;0.50;;;;;;;14.31;100.00;94795.41;5012761;28;24495;-74
2022/05/24 02:23:20;;;;;;;1.48;0.68;;;;;;;14.33;100.00;94790.06;5012620;28;24802;-74
2022/05/24 02:25:50;;;;;;;1.25;0.47;;;;;;;14.33;100.00;94790.91;5012440;28;24870;-74
2022/05/24 02:28:17;;;;;;;2.08;0.50;;;;;;;14.32;100.00;94791.88;5013109;28;24444;-74
2022/05/24 02:30:47;;;;;;;0.57;0.47;;;;;;;14.16;100.00;94781.22;5012735;28;24878;-74
2022/05/24 02:33:15;;;;;;;2.17;0.63;;;;;;;14.06;100.00;94788.25;5012393;28;24480;-74
2022/05/24 02:35:41;;;;;;;1.38;0.70;;;;;;;14.10;100.00;94776.59;5012220;28;24441;-74
2022/05/24 02:38:08;;;;;;;1.90;0.65;;;;;;;14.01;100.00;94768.66;5012407;28;25011;-74
2022/05/24 02:43:19;;;;;;;0.88;0.55;;;;;;;14.17;100.00;94777.66;5012826;28;24487;-74
2022/05/24 02:45:45;;;;;;;1.50;0.82;;;;;;;14.15;100.00;94774.38;5011766;28;24977;-74
2022/05/24 02:48:12;;;;;;;1.38;0.60;;;;;;;14.06;100.00;94767.44;5012188;28;24452;-74
2022/05/24 02:50:40;;;;;;;1.25;0.75;;;;;;;14.02;100.00;94778.13;5012286;28;24444;-75
2022/05/24 02:53:06;;;;;;;23.92;1.52;;;;;;;13.91;100.00;94765.28;5012181;28;24700;-75
2022/05/24 02:55:33;;;;;;;40.20;2.08;;;;;;;13.82;100.00;94768.69;5012050;28;24442;-74
2022/05/24 02:58:00;;;;;;;64.97;2.25;;;;;;;13.70;100.00;94762.03;5011770;28;24993;-74
2022/05/24 03:00:27;;;;;;;1.00;0.73;;;;;;;13.80;100.00;94770.63;5012193;28;24432;-74
2022/05/24 03:02:55;;;;;;;3.40;1.00;;;;;;;13.89;100.00;94776.78;5011786;28;24452;-74
2022/05/24 03:05:23;;;;;;;1.23;0.55;;;;;;;13.96;100.00;94788.28;5011566;28;24826;-74
2022/05/24 03:10:37;;;;;;;3.10;0.88;;;;;;;13.75;100.00;94799.66;5012077;28;24443;-74
2022/05/24 03:15:46;;;;;;;0.90;0.75;;;;;;;13.88;100.00;94812.41;4968177;28;24443;-73
2022/05/24 03:18:16;;;;;;;1.63;1.00;;;;;;;13.81;100.00;94816.50;5011829;28;24448;-74
2022/05/24 03:20:43;;;;;;;1.30;0.90;;;;;;;13.85;100.00;94811.84;5010981;28;24544;-74
2022/05/24 03:23:11;;;;;;;0.70;0.70;;;;;;;13.88;100.00;94820.22;5011615;28;24441;-73
2022/05/24 03:25:38;;;;;;;1.63;1.17;;;;;;;13.78;100.00;94804.59;5011466;28;24518;-73
2022/05/24 03:28:07;;;;;;;1.77;1.03;;;;;;;13.61;100.00;94794.06;5011202;28;24452;-74
2022/05/24 03:30:38;;;;;;;1.80;0.90;;;;;;;13.70;100.00;94791.47;5011207;28;24436;-73
2022/05/24 03:33:05;;;;;;;0.80;0.73;;;;;;;13.75;100.00;94776.25;5009762;28;24440;-73
2022/05/24 03:35:31;;;;;;;0.75;0.73;;;;;;;13.95;100.00;94777.03;5010503;28;24440;-74
2022/05/24 03:37:58;;;;;;;2.85;1.02;;;;;;;14.15;100.00;94777.78;5010452;28;24443;-73
2022/05/24 03:40:26;;;;;;;0.73;0.70;;;;;;;13.97;100.00;94792.50;5010521;28;24441;-73
2022/05/24 03:42:54;;;;;;;2.63;0.90;;;;;;;13.87;100.00;94797.75;5010343;28;25833;-74
2022/05/24 03:45:22;;;;;;;1.17;0.77;;;;;;;13.84;100.00;94805.84;5009600;28;24460;-74
2022/05/24 03:47:48;;;;;;;1.17;0.60;;;;;;;13.73;100.00;94799.00;5010490;28;24838;-74
2022/05/24 03:50:16;;;;;;;2.53;0.93;;;;;;;13.78;100.00;94809.81;5010852;28;24451;-74
2022/05/24 03:52:42;;;;;;;2.25;0.70;;;;;;;13.76;100.00;94806.53;5010915;28;24440;-74
2022/05/24 03:55:09;;;;;;;1.30;0.90;;;;;;;13.76;100.00;94814.34;5010860;28;24443;-74
2022/05/24 04:00:25;;;;;;;3.40;1.10;;;;;;;13.46;100.00;94804.06;5001005;28;24435;-74
2022/05/24 04:02:51;;;;;;;1.60;0.95;;;;;;;13.44;100.00;94811.19;5010755;28;24448;-74
2022/05/24 04:05:18;;;;;;;1.10;0.70;;;;;;;13.56;100.00;94794.50;5010767;28;24913;-74
2022/05/24 04:07:45;;;;;;;0.82;0.70;;;;;;;13.65;100.00;94795.47;5010571;28;24532;-74
2022/05/24 04:10:14;;;;;;;1.45;0.70;;;;;;;13.68;100.00;94805.56;5010997;28;24436;-74
2022/05/24 04:12:42;;;;;;;2.33;0.80;;;;;;;13.63;100.00;94803.38;4995686;28;24432;-74
2022/05/24 04:15:10;;;;;;;1.30;0.70;;;;;;;13.65;100.00;94813.66;5010638;28;24440;-74
2022/05/24 04:17:36;;;;;;;1.00;0.73;;;;;;;13.64;100.00;94810.22;5010840;28;24494;-74
2022/05/24 04:20:04;;;;;;;0.98;0.75;;;;;;;13.59;100.00;94811.59;5010531;28;24973;-74
2022/05/24 04:22:31;;;;;;;1.50;0.88;;;;;;;13.67;100.00;94794.34;5010495;28;24444;-74
2022/05/24 04:24:57;;;;;;;0.80;0.70;;;;;;;13.80;100.00;94812.28;5010641;28;24444;-74
2022/05/24 04:27:24;;;;;;;1.60;0.90;;;;;;;13.83;100.00;94817.22;5010784;28;24444;-74
2022/05/24 04:29:53;;;;;;;1.30;0.80;;;;;;;13.68;100.00;94821.19;5010382;28;24578;-74
2022/05/24 04:32:21;;;;;;;1.60;0.90;;;;;;;13.61;100.00;94833.94;5010420;28;24837;-74
2022/05/24 04:34:47;;;;;;;1.40;0.70;;;;;;;13.74;100.00;94833.66;5010043;28;24440;-73
2022/05/24 04:37:14;;;;;;;1.90;0.90;;;;;;;13.73;100.00;94848.44;5010675;28;24441;-74
2022/05/24 04:39:40;;;;;;;1.25;0.73;;;;;;;13.74;100.00;94851.84;5010422;28;25001;-74
2022/05/24 04:42:19;;;;;;;0.73;0.73;;;;;;;13.81;100.00;94847.75;5010376;28;24440;-73
2022/05/24 04:44:46;;;;;;;2.20;0.98;;;;;;;13.88;100.00;94846.22;5010012;28;24535;-74
2022/05/24 04:47:13;;;;;;;1.65;1.10;;;;;;;13.93;100.00;94849.22;5010251;28;24432;-74
2022/05/24 04:49:41;;;;;;;1.70;0.90;;;;;;;13.90;100.00;94851.28;5010014;28;24447;-74
2022/05/24 04:52:09;;;;;;;0.80;0.80;;;;;;;13.96;100.00;94855.94;5010517;28;24489;-74
2022/05/24 04:54:37;;;;;;;0.80;0.80;;;;;;;13.97;100.00;94860.19;5009982;28;24490;-73
2022/05/24 04:57:05;;;;;;;1.58;0.90;;;;;;;13.83;100.00;94850.19;5010324;28;24439;-74
2022/05/24 04:59:31;;;;;;;3.42;0.98;;;;;;;13.88;100.00;94848.03;5010161;28;25004;-74
2022/05/24 05:01:58;;;;;;;2.33;1.00;;;;;;;13.98;100.00;94841.03;5009750;28;24846;-74
2022/05/24 05:04:26;;;;;;;1.13;0.88;;;;;;;14.08;100.00;94839.19;5009735;28;24989;-74
2022/05/24 05:06:52;;;;;;;3.40;1.10;;;;;;;14.13;100.00;94857.84;5009991;28;24487;-73
2022/05/24 05:09:20;;;;;;;1.57;0.90;;;;;;;14.17;100.00;94869.63;5009592;28;25156;-74
2022/05/24 05:11:47;;;;;;;5.18;1.65;;;;;;;14.09;100.00;94866.91;5010342;28;24441;-74
2022/05/24 05:14:13;;;;;;;2.75;1.58;;;;;;;14.16;100.00;94869.75;5009815;28;24451;-74
2022/05/24 05:16:41;;;;;;;1.75;1.20;;;;;;;14.23;100.00;94884.66;5010063;28;24502;-75
2022/05/24 05:19:09;;;;;;;1.73;1.10;;;;;;;14.33;100.00;94879.44;5010017;28;24433;-74
2022/05/24 05:21:39;;;;;;;6.00;1.50;;;;;;;14.42;100.00;94889.00;5010267;28;24552;-74
2022/05/24 05:24:07;;;;;;;6.10;2.05;;;;;;;14.52;100.00;94883.81;5009557;28;24443;-74
2022/05/24 05:26:35;;;;;;;5.75;2.25;;;;;;;14.57;100.00;94879.00;5010304;28;24460;-74
2022/05/24 05:29:01;;;;;;;2.78;1.52;;;;;;;14.60;100.00;94872.69;5009731;28;24475;-75
2022/05/24 05:31:27;;;;;;;3.07;1.47;;;;;;;14.67;100.00;94887.59;5009922;28;24494;-74
2022/05/24 05:33:54;;;;;;;3.03;1.10;;;;;;;14.64;100.00;94882.66;5009974;28;24472;-74
2022/05/24 05:36:22;;;;;;;2.20;1.17;;;;;;;14.68;100.00;94883.22;5009947;28;24437;-74
2022/05/24 05:38:50;;;;;;;7.57;1.67;;;;;;;14.62;100.00;94882.00;5009715;28;24460;-74
2022/05/24 05:41:18;;;;;;;2.80;1.38;;;;;;;14.71;100.00;94883.75;5009967;28;24467;-74
2022/05/24 05:43:45;;;;;;;7.20;1.77;;;;;;;14.76;100.00;94878.94;5012044;28;24495;-75
2022/05/24 05:46:13;;;;;;;4.55;1.83;;;;;;;14.81;100.00;94883.72;5012390;28;24429;-74
2022/05/24 05:48:40;;;;;;;5.07;1.85;;;;;;;14.85;100.00;94887.69;5013239;28;25016;-73
2022/05/24 05:51:09;;;;;;;4.53;2.08;;;;;;;14.82;100.00;94881.94;5012820;28;25104;-73
2022/05/24 05:53:36;;;;;;;6.18;2.28;;;;;;;14.82;100.00;94885.34;5012856;28;24538;-73
2022/05/24 05:56:05;;;;;;;5.80;1.60;;;;;;;14.81;100.00;94888.13;5012640;28;24432;-73
2022/05/24 05:58:32;;;;;;;3.50;1.75;;;;;;;14.87;100.00;94890.13;5013180;28;24436;-73
2022/05/24 06:01:00;;;;;;;5.22;1.50;;;;;;;14.87;100.00;94888.38;5013285;28;24448;-74
2022/05/24 06:03:27;;;;;;;3.88;1.20;;;;;;;14.85;100.00;94892.06;5010444;28;25016;-75
2022/05/24 06:05:54;;;;;;;4.55;1.20;;;;;;;14.88;100.00;94891.78;5010467;28;24432;-74
2022/05/24 06:08:21;;;;;;;3.63;1.23;;;;;;;14.89;100.00;94889.03;5012005;28;24972;-74
2022/05/24 06:10:48;;;;;;;4.68;1.23;;;;;;;14.73;100.00;94899.25;5008998;28;24444;-71
2022/05/24 06:13:15;;;;;;;2.05;1.10;;;;;;;14.75;100.00;94905.13;5010623;28;24452;-73
2022/05/24 06:15:42;;;;;;;1.75;1.10;;;;;;;14.79;100.00;94909.09;5011231;28;24444;-74
2022/05/24 06:18:08;;;;;;;2.63;1.10;;;;;;;14.82;100.00;94918.41;5012625;28;24455;-75
2022/05/24 06:20:35;;;;;;;2.50;0.97;;;;;;;14.86;100.00;94912.78;5012268;28;24927;-75
2022/05/24 06:23:01;;;;;;;4.75;2.00;;;;;;;14.95;100.00;94913.72;5010760;28;24981;-75
2022/05/24 06:25:30;;;;;;;3.88;1.52;;;;;;;14.96;100.00;94925.78;5011297;28;24444;-74
2022/05/24 06:27:57;;;;;;;5.30;1.70;;;;;;;15.06;100.00;94930.97;5004860;28;24436;-74
2022/05/24 06:30:26;;;;;;;1.95;1.20;;;;;;;15.10;100.00;94934.94;5012160;28;25015;-75
2022/05/24 06:32:53;;;;;;;2.80;1.40;;;;;;;15.10;100.00;94943.56;5011560;28;24448;-74
2022/05/24 06:35:20;;;;;;;4.95;1.38;;;;;;;15.15;100.00;94948.34;5010985;28;24985;-75
2022/05/24 06:37:48;;;;;;;4.88;1.20;;;;;;;14.95;100.00;94950.22;5003758;28;24448;-75
2022/05/24 06:40:19;;;;;;;4.53;1.27;;;;;;;14.69;100.00;94973.47;5012299;28;24463;-74
2022/05/24 06:42:45;;;;;;;2.47;0.90;;;;;;;13.72;100.00;95005.53;5011683;28;24443;-75
2022/05/24 06:45:12;;;;;;;1.90;0.60;;;;;;;12.93;100.00;95022.72;5011223;28;24440;-75
2022/05/24 06:47:40;;;;;;;1.40;0.40;;;;;;;12.23;100.00;95032.78;5012087;28;24901;-74
2022/05/24 06:50:09;;;;;;;1.70;0.30;;;;;;;12.06;100.00;95034.16;5011281;28;25088;-74
2022/05/24 06:52:36;;;;;;;0.95;0.25;;;;;;;11.99;100.00;95038.19;5011653;28;24451;-74
2022/05/24 06:55:03;;;;;;;0.50;0.32;;;;;;;12.01;100.00;95041.47;5002910;28;24791;-74
2022/05/24 06:57:29;;;;;;;2.10;0.20;;;;;;;11.96;100.00;95042.78;5004608;28;24428;-74
2022/05/24 07:02:42;;;;;;;0.57;0.30;;;;;;;12.12;100.00;95017.25;4996022;28;24448;-74
2022/05/24 07:05:10;;;;;;;0.75;0.30;;;;;;;11.98;100.00;95027.94;5010663;28;24821;-74
2022/05/24 07:07:38;;;;;;;2.33;0.40;;;;;;;12.18;100.00;95026.31;5001157;28;24463;-74
2022/05/24 07:10:08;;;;;;;1.50;0.30;;;;;;;12.34;100.00;95037.91;5011510;28;24861;-75
2022/05/24 07:12:35;;;;;;;2.60;0.50;;;;;;;12.35;100.00;95039.59;5010236;28;24436;-74
2022/05/24 07:15:02;;;;;;;2.03;0.55;;;;;;;12.65;100.00;95043.22;5002902;28;24982;-74
2022/05/24 07:17:28;;;;;;;1.52;0.50;;;;;;;12.65;100.00;95043.22;5011396;28;24466;-74
2022/05/24 07:19:56;;;;;;;0.82;0.40;;;;;;;12.57;100.00;95053.44;5011278;28;24439;-74
2022/05/24 07:22:23;;;;;;;1.42;0.38;;;;;;;12.57;100.00;95061.22;5008923;28;24439;-75
2022/05/24 07:24:49;;;;;;;1.00;0.45;;;;;;;12.68;100.00;95074.16;5002583;28;24796;-74
2022/05/24 07:27:18;;;;;;;0.80;0.30;;;;;;;12.84;100.00;95069.31;5004643;28;24559;-75
2022/05/24 07:29:45;;;;;;;0.52;0.30;;;;;;;12.89;100.00;95079.34;5009976;28;24460;-74
2022/05/24 07:32:11;;;;;;;6.13;0.40;;;;;;;12.68;100.00;95087.13;5010986;28;24440;-75
2022/05/24 07:34:38;;;;;;;1.30;0.32;;;;;;;12.87;100.00;95089.06;5010546;28;24444;-75
2022/05/24 07:37:08;;;;;;;1.90;0.30;;;;;;;12.95;100.00;95093.59;5010713;28;24435;-73
2022/05/24 07:39:35;;;;;;;1.25;0.30;;;;;;;13.13;100.00;95094.69;5011275;28;24432;-73
2022/05/24 07:47:32;;;;;;;1.58;0.38;;;;;;;13.77;100.00;95093.63;5009098;28;24793;-74
2022/05/24 07:49:59;;;;;;;0.68;0.20;;;;;;;13.93;100.00;95100.91;5008180;28;24470;-74
2022/05/24 07:52:27;;;;;;;0.43;0.20;;;;;;;14.12;100.00;95107.94;5010970;28;24433;-74
2022/05/24 07:54:54;;;;;;;0.85;0.17;;;;;;;14.33;100.00;95103.47;5009846;28;24449;-74
2022/05/24 07:57:21;;;;;;;3.00;0.20;;;;;;;14.65;100.00;95092.81;5010173;28;24432;-74
2022/05/24 07:59:48;;;;;;;0.13;0.10;;;;;;;14.70;100.00;95093.22;4994749;28;24510;-74
2022/05/24 08:02:16;;;;;;;0.30;0.10;;;;;;;14.59;100.00;95092.53;5010059;28;24503;-74
2022/05/24 08:04:43;;;;;;;0.73;0.30;;;;;;;14.89;100.00;95097.59;5010152;28;24472;-74
2022/05/24 08:07:10;;;;;;;0.40;0.30;;;;;;;14.68;100.00;95100.38;5009947;28;24428;-75
2022/05/24 08:09:37;;;;;;;0.95;0.30;;;;;;;13.59;100.00;95101.22;5009714;28;24457;-75
2022/05/24 08:12:05;;;;;;;0.75;0.40;;;;;;;13.31;100.00;95093.16;5010242;28;24433;-73
2022/05/24 08:14:31;;;;;;;0.70;0.30;;;;;;;13.44;100.00;95092.13;5002496;28;24437;-75
2022/05/24 08:16:58;;;;;;;0.90;0.20;;;;;;;13.70;100.00;95115.91;5010373;28;24494;-75
2022/05/24 08:19:24;;;;;;;1.08;0.40;;;;;;;13.76;100.00;95115.41;5010463;28;24440;-74
2022/05/24 08:21:50;;;;;;;0.88;0.38;;;;;;;13.78;100.00;95121.28;5010398;28;24842;-75
2022/05/24 08:24:17;;;;;;;1.17;0.47;;;;;;;13.90;99.70;95122.00;5010288;28;24862;-75
2022/05/24 08:26:45;;;;;;;1.05;0.40;;;;;;;14.06;100.00;95135.34;5007997;28;25024;-73
2022/05/24 08:29:11;;;;;;;1.20;0.30;;;;;;;14.20;98.39;95127.16;5005081;28;24448;-74
2022/05/24 08:31:38;;;;;;;0.57;0.20;;;;;;;14.25;100.00;95131.97;5010523;28;24440;-73
2022/05/24 08:34:04;;;;;;;0.98;0.32;;;;;;;14.18;100.00;95139.50;5010393;28;24448;-74
2022/05/24 08:36:30;;;;;;;1.48;0.60;;;;;;;13.95;100.00;95127.66;5010183;28;24990;-74
2022/05/24 08:38:57;;;;;;;3.17;0.38;;;;;;;13.76;100.00;95144.84;5010775;28;24439;-74
2022/05/24 08:41:31;;;;;;;1.17;0.20;;;;;;;13.89;100.00;95143.78;5010365;28;24440;-74
2022/05/24 08:50:15;;;;;;;1.50;0.38;;;;;;;14.42;100.00;95131.28;4874250;29;24447;-74
2022/05/24 08:52:47;;;;;;;0.88;0.40;;;;;;;14.49;94.83;95129.81;4900031;29;24495;-74
2022/05/24 08:55:15;;;;;;;0.80;0.40;;;;;;;14.54;93.16;95134.66;4958157;28;24528;-74
2022/05/24 08:57:46;;;;;;;1.10;0.30;;;;;;;15.04;92.61;95133.69;5009894;28;24531;-74
2022/05/24 09:00:18;;;;;;;1.55;0.40;;;;;;;14.95;93.97;95137.94;5010602;28;24455;-75
2022/05/24 09:02:47;;;;;;;0.45;0.30;;;;;;;15.09;92.41;95126.25;5010114;28;25835;-73
2022/05/24 09:05:19;;;;;;;0.95;0.30;;;;;;;14.34;94.45;95144.19;5008660;28;24490;-74
2022/05/24 09:07:58;;;;;;;1.05;0.45;;;;;;;14.50;95.33;95151.53;5009624;28;24440;-74
2022/05/24 09:10:30;;;;;;;1.00;0.30;;;;;;;14.76;93.00;95150.03;5009246;28;24452;-73
2022/05/24 09:13:12;;;;;;;0.70;0.50;;;;;;;14.90;86.87;95153.16;5010160;28;25032;-74
2022/05/24 09:15:49;;;;;;;0.57;0.30;;;;;;;14.64;87.11;95163.31;5009694;28;24436;-74
2022/05/24 09:18:23;;;;;;;0.50;0.32;;;;;;;14.52;90.20;95170.44;5011911;28;24834;-74
2022/05/24 09:20:50;;;;;;;1.63;0.50;;;;;;;14.55;91.49;95172.78;5014167;28;24625;-74
2022/05/24 09:23:23;;;;;;;1.57;0.40;;;;;;;14.57;90.98;95170.84;5013689;28;24868;-74
2022/05/24 09:25:54;;;;;;;2.80;0.43;;;;;;;14.37;90.33;95169.16;5013589;28;24506;-74
2022/05/24 09:28:48;;;;;;;0.85;0.30;;;;;;;14.63;90.86;95172.91;5013714;28;24443;-74
2022/05/24 09:31:25;;;;;;;1.10;0.40;;;;;;;14.38;89.45;95174.22;5013622;28;24452;-74
2022/05/24 09:33:56;;;;;;;0.63;0.22;;;;;;;14.33;91.27;95181.59;5013275;28;24436;-73
2022/05/24 09:36:32;;;;;;;1.10;0.40;;;;;;;14.20;89.15;95179.25;5010271;28;24872;-74
2022/05/24 09:39:00;;;;;;;1.33;0.30;;;;;;;14.26;88.89;95170.91;5013638;28;24520;-74
2022/05/24 09:41:27;;;;;;;1.65;0.40;;;;;;;14.31;88.25;95174.88;5013702;28;24491;-75
2022/05/24 09:44:03;;;;;;;0.80;0.30;;;;;;;14.19;88.43;95179.38;5013289;28;24441;-74
2022/05/24 09:46:31;;;;;;;0.93;0.50;;;;;;;14.33;89.68;95179.00;5013628;28;24443;-74
2022/05/24 09:49:03;;;;;;;1.70;0.45;;;;;;;14.79;87.09;95185.41;5012992;28;24436;-74
2022/05/24 09:51:39;;;;;;;2.08;0.40;;;;;;;15.14;83.82;95178.84;5013209;28;24507;-74
2022/05/24 09:54:13;;;;;;;1.83;0.50;;;;;;;15.07;82.46;95190.78;5013202;28;24499;-74
2022/05/24 09:56:40;;;;;;;1.40;0.38;;;;;;;14.99;79.41;95194.91;5013200;28;24490;-74
2022/05/24 09:59:19;;;;;;;0.90;0.40;;;;;;;15.35;78.80;95186.47;5013221;28;24436;-75
2022/05/24 10:01:49;;;;;;;0.63;0.40;;;;;;;15.75;77.34;95186.28;5008529;28;24433;-75
2022/05/24 10:04:20;;;;;;;2.10;0.30;;;;;;;15.66;75.73;95187.97;5007582;28;24501;-74
2022/05/24 10:06:56;;;;;;;1.60;0.47;;;;;;;15.61;77.99;95200.59;5012834;28;24432;-74
2022/05/24 10:09:49;;;;;;;0.85;0.40;;;;;;;16.00;78.23;95200.50;5012932;28;24993;-74
2022/05/24 10:12:42;;;;;;;2.90;0.47;;;;;;;15.86;79.07;95204.41;5010706;28;24439;-74
2022/05/24 10:15:19;;;;;;;0.93;0.57;;;;;;;15.39;81.96;95195.69;5012430;28;24803;-74
2022/05/24 10:18:02;;;;;;;2.55;0.32;;;;;;;15.11;81.05;95203.41;5004628;28;24982;-74
2022/05/24 10:20:39;;;;;;;3.60;0.40;;;;;;;15.11;81.62;95198.19;5012774;28;24443;-73
2022/05/24 10:23:10;;;;;;;0.40;0.28;;;;;;;15.77;78.93;95192.22;5012573;28;25024;-75
2022/05/24 10:25:41;;;;;;;0.90;0.32;;;;;;;16.16;76.39;95197.28;5012610;28;25020;-74
2022/05/24 10:28:20;;;;;;;0.98;0.50;;;;;;;16.55;80.61;95187.44;5012488;28;24447;-75
2022/05/24 10:30:55;;;;;;;1.05;0.50;;;;;;;16.69;77.00;95191.38;5012571;28;24887;-75
2022/05/24 10:39:25;;;;;;;2.95;0.70;;;;;;;16.89;75.00;95190.28;4997889;28;24429;-74
2022/05/24 10:42:01;;;;;;;1.02;0.40;;;;;;;16.39;70.91;95190.72;4996491;28;24486;-74
2022/05/24 10:44:33;;;;;;;1.38;0.30;;;;;;;16.69;72.87;95197.41;5012122;28;25036;-74
2022/05/24 10:47:04;;;;;;;1.90;0.47;;;;;;;16.57;71.42;95195.94;5012640;28;24441;-74
2022/05/24 10:49:39;;;;;;;2.40;0.40;;;;;;;16.71;70.52;95192.03;5012373;28;24439;-73
2022/05/24 10:52:11;;;;;;;1.25;0.40;;;;;;;16.65;69.29;95190.00;5012018;28;24438;-74
2022/05/24 10:54:46;;;;;;;0.45;0.40;;;;;;;16.96;69.19;95176.59;5012607;28;24432;-75
2022/05/24 10:57:16;;;;;;;0.80;0.35;;;;;;;16.92;70.18;95186.53;5012274;28;24437;-75
2022/05/24 10:59:53;;;;;;;0.93;0.30;;;;;;;16.72;67.94;95177.16;5010276;28;24985;-75
2022/05/24 11:02:31;;;;;;;1.00;0.40;;;;;;;16.88;72.03;95185.19;5007689;28;24440;-73
2022/05/24 11:05:07;;;;;;;0.95;0.35;;;;;;;16.96;73.08;95192.31;5012459;28;24432;-74
2022/05/24 11:07:36;;;;;;;3.60;0.60;;;;;;;16.23;73.43;95190.50;4996587;28;25036;-74
2022/05/24 11:10:10;;;;;;;1.70;0.32;;;;;;;15.79;78.18;95192.06;5012441;28;24444;-74
2022/05/24 11:12:42;;;;;;;0.82;0.32;;;;;;;15.62;77.74;95197.03;5012178;28;24965;-74
2022/05/24 11:15:16;;;;;;;0.55;0.40;;;;;;;15.62;78.24;95198.81;5012314;28;24439;-74
2022/05/24 11:17:42;;;;;;;1.17;0.57;;;;;;;15.78;80.97;95206.91;5012295;28;24478;-74
2022/05/24 11:20:12;;;;;;;3.85;0.63;;;;;;;15.70;77.63;95215.44;5012191;28;24448;-73
2022/05/24 11:22:41;;;;;;;0.68;0.38;;;;;;;15.34;77.49;95205.72;4992619;28;24424;-74
2022/05/24 11:25:13;;;;;;;1.08;0.40;;;;;;;15.82;80.88;95200.44;4992154;28;24451;-74
2022/05/24 11:27:43;;;;;;;2.67;0.63;;;;;;;16.43;76.83;95206.94;4994744;28;24792;-73
2022/05/24 11:30:13;;;;;;;0.93;0.47;;;;;;;16.60;75.66;95208.72;5011778;28;24456;-75
2022/05/24 11:32:44;;;;;;;1.02;0.40;;;;;;;16.16;73.98;95192.88;5010367;28;24440;-74
2022/05/24 11:35:24;;;;;;;1.60;0.50;;;;;;;16.21;76.10;95198.50;5011529;28;24809;-73
2022/05/24 11:37:52;;;;;;;0.75;0.40;;;;;;;16.71;72.09;95189.41;4992152;28;24516;-74
2022/05/24 11:40:34;;;;;;;5.30;0.70;;;;;;;16.76;73.17;95195.06;4999988;28;24444;-74
2022/05/24 11:43:03;;;;;;;1.38;0.60;;;;;;;16.98;68.80;95195.56;5011227;28;25040;-75
2022/05/24 11:45:48;;;;;;;1.33;0.45;;;;;;;16.98;68.14;95196.41;5011825;28;24475;-75
2022/05/24 11:48:19;;;;;;;2.70;0.60;;;;;;;17.14;68.65;95195.75;5011964;28;24424;-74
2022/05/24 11:50:50;;;;;;;0.90;0.52;;;;;;;17.27;66.31;95188.31;5011812;28;24480;-75
2022/05/24 11:53:40;;;;;;;0.80;0.50;;;;;;;17.30;65.75;95181.97;5011683;28;24448;-74
2022/05/24 11:56:24;;;;;;;1.10;0.50;;;;;;;17.39;66.94;95178.41;4986687;28;25073;-74
2022/05/24 11:58:54;;;;;;;1.58;0.50;;;;;;;17.13;68.19;95184.47;5003977;28;24986;-75
2022/05/24 12:01:49;;;;;;;0.88;0.50;;;;;;;17.21;67.64;95181.09;5011734;28;24420;-75
2022/05/24 12:10:00;;;;;;;5.07;0.60;;;;;;;17.24;64.65;95170.28;4991726;28;24401;-74
2022/05/24 12:12:31;;;;;;;0.77;0.38;;;;;;;17.54;65.36;95176.91;4991849;28;24463;-74
2022/05/24 12:15:17;;;;;;;0.80;0.40;;;;;;;17.32;66.46;95169.56;4991680;28;24436;-74
2022/05/24 12:17:45;;;;;;;1.55;0.50;;;;;;;17.41;67.74;95190.38;4992114;28;24484;-74
2022/05/24 12:20:30;;;;;;;0.55;0.30;;;;;;;17.53;60.58;95184.91;4991763;28;24433;-75